TAF Text Data
IDs:
Format:
Raw Decoded Include METAR

Data at: 1943 UTC 21 Sep 2021

KEWN 211744Z 2118/2218 12012G16KT P6SM BKN100
  FM220500 13009KT P6SM BKN030
  FM221100 14008G13KT P6SM BKN045
  FM221400 15010G15KT 6SM -SHRA BKN027